Time;durP1;ratioP1;P1;durP2;ratioP2;P2;SDS_P1;SDS_P2;PMS_P1;PMS_P2;Temp;Humidity;BMP_temperature;BMP_pressure;BME280_temperature;BME280_humidity;BME280_pressure;Samples;Min_cycle;Max_cycle;Signal;HPM_P1;HPM_P2
2021/12/25 00:00:14;;;;;;;11.50;5.65;;;;;;;1.93;100.00;90543.28;5052905;28;20589;-70
2021/12/25 00:02:41;;;;;;;9.30;5.55;;;;;;;2.05;100.00;90555.06;5053200;28;20044;-71
2021/12/25 00:05:08;;;;;;;6.28;4.50;;;;;;;2.03;100.00;90557.13;5053234;28;20032;-70
2021/12/25 00:07:34;;;;;;;7.65;4.20;;;;;;;2.04;100.00;90557.94;5053000;28;20037;-69
2021/12/25 00:10:00;;;;;;;8.30;4.43;;;;;;;1.99;100.00;90555.31;5052751;28;20037;-70
2021/12/25 00:12:26;;;;;;;6.78;3.85;;;;;;;1.95;100.00;90549.81;5053009;28;20094;-70
2021/12/25 00:14:52;;;;;;;5.10;4.10;;;;;;;2.02;100.00;90560.03;5053006;28;20040;-70
2021/12/25 00:17:18;;;;;;;7.97;3.78;;;;;;;1.99;100.00;90561.34;5053006;28;20411;-70
2021/12/25 00:19:44;;;;;;;7.28;4.30;;;;;;;1.96;100.00;90571.59;5052881;28;20029;-70
2021/12/25 00:22:10;;;;;;;6.22;4.40;;;;;;;1.91;100.00;90569.78;5052477;28;20037;-70
2021/12/25 00:24:41;;;;;;;6.70;4.22;;;;;;;1.84;100.00;90569.25;5052830;28;20045;-70
2021/12/25 00:27:23;;;;;;;6.43;3.95;;;;;;;1.87;100.00;90573.16;5052753;28;20029;-70
2021/12/25 00:29:56;;;;;;;5.68;3.80;;;;;;;1.88;100.00;90559.00;5052670;28;20430;-70
2021/12/25 00:34:47;;;;;;;5.93;4.18;;;;;;;1.83;100.00;90566.91;5052665;28;20287;-70
2021/12/25 00:37:13;;;;;;;4.15;3.22;;;;;;;1.86;100.00;90555.88;5052605;28;20566;-70
2021/12/25 00:39:39;;;;;;;4.45;3.60;;;;;;;1.91;100.00;90563.75;5052501;28;20032;-70
2021/12/25 00:42:06;;;;;;;4.00;3.10;;;;;;;1.87;100.00;90573.16;5052376;28;20036;-70
2021/12/25 00:44:33;;;;;;;5.75;3.50;;;;;;;1.80;100.00;90570.84;5052511;28;20056;-70
2021/12/25 00:46:59;;;;;;;4.88;3.35;;;;;;;1.84;100.00;90566.63;5052130;28;20465;-70
2021/12/25 00:49:26;;;;;;;5.60;3.88;;;;;;;1.86;100.00;90561.91;5052378;28;20110;-70
2021/12/25 00:51:52;;;;;;;5.40;3.42;;;;;;;1.82;100.00;90558.25;5052242;28;20475;-70
2021/12/25 00:54:18;;;;;;;3.47;3.08;;;;;;;1.89;100.00;90565.81;5052147;28;20036;-70
2021/12/25 00:56:43;;;;;;;7.40;3.90;;;;;;;1.83;100.00;90546.69;5052224;28;20036;-70
2021/12/25 00:59:09;;;;;;;5.07;3.53;;;;;;;1.83;100.00;90546.69;5051743;28;20045;-70
2021/12/25 01:01:36;;;;;;;6.65;4.93;;;;;;;1.96;100.00;90558.47;5051773;28;20747;-70
2021/12/25 01:04:02;;;;;;;4.13;3.70;;;;;;;1.92;100.00;90558.22;5051974;28;20055;-70
2021/12/25 01:06:28;;;;;;;7.43;4.93;;;;;;;1.81;100.00;90559.28;5052154;28;20037;-70
2021/12/25 01:08:54;;;;;;;5.15;4.20;;;;;;;1.66;100.00;90559.31;5051954;28;20500;-71
2021/12/25 01:11:20;;;;;;;6.70;4.35;;;;;;;1.57;100.00;90563.50;5051694;28;20021;-70
2021/12/25 01:13:52;;;;;;;7.15;3.88;;;;;;;1.52;100.00;90558.25;5050431;28;20048;-71
2021/12/25 01:47:47;;;;;;;4.43;3.40;;;;;;;1.92;100.00;90528.59;5050969;28;20039;-70
2021/12/25 01:50:15;;;;;;;4.03;3.58;;;;;;;1.96;100.00;90530.41;5051360;28;20029;-70
2021/12/25 01:52:40;;;;;;;7.93;4.63;;;;;;;2.03;100.00;90535.38;5051118;28;20029;-70
2021/12/25 01:55:11;;;;;;;6.80;4.28;;;;;;;2.04;100.00;90532.47;5051164;28;20081;-70
2021/12/25 01:57:37;;;;;;;4.53;3.80;;;;;;;1.98;100.00;90533.56;5050929;28;20041;-70
2021/12/25 02:00:06;;;;;;;4.95;3.83;;;;;;;1.99;100.00;90535.13;5050741;28;20029;-70
2021/12/25 02:02:32;;;;;;;5.25;3.20;;;;;;;1.97;100.00;90528.56;5050302;28;20021;-70
2021/12/25 02:04:58;;;;;;;5.55;3.50;;;;;;;1.97;100.00;90539.06;5051108;28;20388;-70
2021/12/25 02:07:23;;;;;;;5.88;3.33;;;;;;;1.96;100.00;90535.66;5051044;28;20336;-70
2021/12/25 02:09:49;;;;;;;5.03;4.25;;;;;;;1.97;100.00;90534.59;5050956;28;20442;-70
2021/12/25 02:12:15;;;;;;;4.75;3.60;;;;;;;1.86;100.00;90527.03;5050562;28;20471;-70
2021/12/25 02:14:45;;;;;;;6.43;4.03;;;;;;;1.77;100.00;90516.31;5050357;28;20029;-70
2021/12/25 02:19:55;;;;;;;8.60;4.50;;;;;;;1.67;100.00;90532.81;5051177;28;20029;-71
2021/12/25 02:22:24;;;;;;;5.45;3.75;;;;;;;1.75;100.00;90513.16;5050647;28;20487;-71
2021/12/25 02:24:50;;;;;;;6.38;3.70;;;;;;;1.83;100.00;90528.34;5050466;28;20017;-71
2021/12/25 02:27:16;;;;;;;7.50;4.95;;;;;;;1.69;100.00;90528.09;5050833;28;20479;-70
2021/12/25 02:29:41;;;;;;;6.03;3.90;;;;;;;1.62;100.00;90529.44;5050721;28;20199;-70
2021/12/25 02:32:08;;;;;;;5.53;3.55;;;;;;;1.69;100.00;90535.19;5050622;28;20078;-70
2021/12/25 02:34:33;;;;;;;5.57;3.10;;;;;;;1.74;100.00;90538.59;5050721;28;20414;-70
2021/12/25 02:36:58;;;;;;;3.42;2.70;;;;;;;1.88;100.00;90538.81;5050657;28;20021;-70
2021/12/25 02:39:24;;;;;;;5.10;2.78;;;;;;;1.91;100.00;90532.28;5050381;28;20025;-70
2021/12/25 02:41:50;;;;;;;5.60;3.10;;;;;;;1.90;100.00;90530.72;5050384;28;20049;-70
2021/12/25 02:44:16;;;;;;;5.47;3.30;;;;;;;1.91;100.00;90530.44;5050829;28;20045;-70
2021/12/25 02:46:42;;;;;;;3.42;2.60;;;;;;;1.96;100.00;90540.91;5050599;28;20525;-70
2021/12/25 02:49:12;;;;;;;4.80;3.10;;;;;;;2.02;100.00;90545.06;5050587;28;20754;-70
2021/12/25 02:51:39;;;;;;;3.00;2.70;;;;;;;1.99;100.00;90548.25;5050296;28;20017;-70
2021/12/25 02:54:05;;;;;;;3.80;2.72;;;;;;;2.03;100.00;90548.47;5050352;28;20083;-70
2021/12/25 02:56:30;;;;;;;6.57;2.95;;;;;;;1.99;100.00;90545.63;5050720;28;20025;-70
2021/12/25 02:58:56;;;;;;;4.05;2.80;;;;;;;1.96;100.00;90555.84;5050173;28;20427;-71
2021/12/25 03:01:23;;;;;;;4.38;2.90;;;;;;;1.92;100.00;90544.34;5050380;28;20075;-70
2021/12/25 03:03:49;;;;;;;6.38;3.28;;;;;;;1.84;100.00;90550.91;5049989;28;20091;-70
2021/12/25 03:06:14;;;;;;;3.22;2.38;;;;;;;1.90;100.00;90556.94;5050334;28;20025;-70
2021/12/25 03:08:41;;;;;;;5.75;3.30;;;;;;;1.89;100.00;90539.59;5050352;28;20039;-70
2021/12/25 03:11:07;;;;;;;5.90;3.13;;;;;;;1.93;100.00;90549.31;5050266;28;20104;-70
2021/12/25 03:13:41;;;;;;;4.10;2.85;;;;;;;1.91;100.00;90561.91;5050301;28;20087;-69
2021/12/25 03:16:07;;;;;;;4.30;2.92;;;;;;;1.86;100.00;90548.00;5049941;28;20024;-70
2021/12/25 03:18:40;;;;;;;7.80;3.90;;;;;;;1.79;100.00;90561.41;5050312;28;20426;-70
2021/12/25 03:21:06;;;;;;;4.65;3.28;;;;;;;1.78;100.00;90563.22;5048897;28;20029;-70
2021/12/25 03:23:36;;;;;;;4.55;3.45;;;;;;;1.83;100.00;90572.91;5050083;28;20473;-70
2021/12/25 03:26:04;;;;;;;4.45;3.30;;;;;;;1.83;100.00;90580.00;5053695;28;20461;-70
2021/12/25 03:28:32;;;;;;;3.78;3.20;;;;;;;1.86;100.00;90568.97;5053695;28;20056;-70
2021/12/25 03:31:05;;;;;;;5.32;3.05;;;;;;;1.78;100.00;90565.84;5053938;28;20029;-70
2021/12/25 03:33:32;;;;;;;6.50;3.10;;;;;;;1.98;100.00;90567.66;5053860;28;20033;-70
2021/12/25 03:35:58;;;;;;;4.85;2.65;;;;;;;1.89;100.00;90555.34;5053670;28;20274;-70
2021/12/25 03:38:24;;;;;;;3.55;3.03;;;;;;;1.87;100.00;90568.72;5053664;28;20033;-70
2021/12/25 03:40:51;;;;;;;3.45;2.78;;;;;;;1.86;100.00;90561.91;5053307;28;20032;-71
2021/12/25 03:43:18;;;;;;;5.35;2.83;;;;;;;1.82;100.00;90555.63;5052313;28;20029;-70
2021/12/25 03:45:45;;;;;;;5.65;3.38;;;;;;;1.81;100.00;90554.06;5053646;28;20043;-70
2021/12/25 03:48:16;;;;;;;98.32;51.35;;;;;;;1.88;100.00;90546.69;5053540;28;20036;-70
2021/12/25 03:58:55;;;;;;;3.53;2.67;;;;;;;2.32;100.00;90559.16;5053217;28;20122;-71
2021/12/25 04:04:17;;;;;;;12.13;6.65;;;;;;;2.35;100.00;90561.25;5053315;28;20483;-70
2021/12/25 04:06:45;;;;;;;22.13;10.02;;;;;;;2.36;100.00;90554.94;5052927;28;20071;-70
2021/12/25 04:09:22;;;;;;;18.10;11.20;;;;;;;2.37;100.00;90546.03;5053198;28;20062;-70
2021/12/25 04:11:48;;;;;;;9.10;6.10;;;;;;;2.32;100.00;90549.44;5053017;28;20025;-71
2021/12/25 04:14:14;;;;;;;8.35;4.20;;;;;;;2.44;100.00;90554.41;5053106;28;20085;-71
2021/12/25 04:16:39;;;;;;;8.88;4.43;;;;;;;2.53;100.00;90555.44;5051450;28;20116;-71
2021/12/25 04:19:05;;;;;;;4.57;4.00;;;;;;;2.61;100.00;90560.09;5053024;28;20080;-71
2021/12/25 04:21:30;;;;;;;5.85;3.55;;;;;;;2.74;100.00;90557.97;5053174;28;20025;-71
2021/12/25 04:23:56;;;;;;;15.40;7.68;;;;;;;2.67;100.00;90552.97;5052670;28;20029;-71
2021/12/25 04:26:24;;;;;;;6.97;4.65;;;;;;;2.55;100.00;90571.69;5053192;28;20025;-71
2021/12/25 04:31:36;;;;;;;6.47;3.78;;;;;;;2.68;100.00;90557.19;5052790;28;20028;-71
2021/12/25 05:01:36;;;;;;;6.85;4.18;;;;;;;2.82;100.00;90573.91;5052421;28;20025;-71
2021/12/25 05:04:00;;;;;;;7.28;3.70;;;;;;;3.05;99.87;90572.50;5052244;28;20044;-70
2021/12/25 05:06:26;;;;;;;6.70;4.95;;;;;;;3.10;99.52;90582.19;5051744;28;20033;-70
2021/12/25 05:08:54;;;;;;;8.48;6.10;;;;;;;3.13;99.34;90582.44;5052023;28;20035;-70
2021/12/25 05:11:20;;;;;;;5.25;3.95;;;;;;;3.06;99.46;90584.59;5052031;28;20028;-70
2021/12/25 05:13:48;;;;;;;19.45;11.52;;;;;;;2.99;100.00;90581.44;5051799;28;20028;-70
2021/12/25 05:16:13;;;;;;;12.75;7.20;;;;;;;3.12;99.78;90577.44;5051827;28;20510;-70
2021/12/25 05:18:39;;;;;;;10.18;6.93;;;;;;;3.22;99.65;90577.41;5051580;28;20028;-70
2021/12/25 05:21:06;;;;;;;11.73;7.60;;;;;;;3.27;99.27;90575.50;5051583;28;20032;-70
2021/12/25 05:23:32;;;;;;;8.70;7.80;;;;;;;3.34;99.02;90575.22;5051518;28;20256;-70
2021/12/25 05:25:58;;;;;;;6.15;5.55;;;;;;;3.43;97.22;90572.78;5051488;28;20469;-70
2021/12/25 05:28:25;;;;;;;3.50;3.13;;;;;;;3.43;96.46;90565.69;5051585;28;20029;-70
2021/12/25 05:30:54;;;;;;;9.45;5.10;;;;;;;3.44;96.83;90571.72;5051265;28;20021;-70
2021/12/25 05:33:21;;;;;;;6.28;3.83;;;;;;;3.37;97.38;90573.88;5051379;28;20025;-70
2021/12/25 05:35:48;;;;;;;6.32;4.50;;;;;;;3.33;98.07;90570.25;5051025;28;20036;-70
2021/12/25 05:38:15;;;;;;;8.18;6.75;;;;;;;3.33;98.55;90570.25;5049107;28;20047;-70
2021/12/25 05:40:45;;;;;;;9.23;6.32;;;;;;;3.35;98.14;90576.78;5051169;28;20021;-70
2021/12/25 05:43:12;;;;;;;5.85;4.65;;;;;;;3.37;98.27;90589.66;5049819;28;20025;-70
2021/12/25 05:45:38;;;;;;;4.88;3.88;;;;;;;3.39;98.06;90580.44;5051265;28;20115;-71
2021/12/25 05:48:04;;;;;;;13.30;8.52;;;;;;;3.45;96.84;90591.69;5050415;28;20115;-70
2021/12/25 05:50:30;;;;;;;4.35;3.20;;;;;;;3.38;97.51;90576.25;5049830;28;20056;-70
2021/12/25 05:52:57;;;;;;;3.05;2.70;;;;;;;3.35;97.80;90570.75;5051014;28;20040;-70
2021/12/25 05:55:24;;;;;;;4.57;2.95;;;;;;;3.29;99.25;90581.28;5051254;28;20032;-71
2021/12/25 05:57:50;;;;;;;2.80;2.40;;;;;;;3.27;100.00;90582.63;5050695;28;20049;-71
2021/12/25 06:00:16;;;;;;;2.47;2.20;;;;;;;3.33;100.00;90588.66;5049724;28;20054;-71
2021/12/25 06:02:42;;;;;;;2.35;2.15;;;;;;;3.28;100.00;90592.84;5050848;28;20093;-71
2021/12/25 06:05:08;;;;;;;5.53;3.72;;;;;;;3.30;100.00;90588.09;5051034;28;20036;-71
2021/12/25 06:07:33;;;;;;;4.25;3.00;;;;;;;3.40;100.00;90602.25;5049688;28;20025;-70
2021/12/25 06:10:00;;;;;;;6.55;4.50;;;;;;;3.44;100.00;90604.06;5050741;28;20033;-71
2021/12/25 06:12:26;;;;;;;3.13;2.70;;;;;;;3.53;98.86;90610.31;5050804;28;20104;-71
2021/12/25 06:14:53;;;;;;;8.95;5.95;;;;;;;3.64;99.06;90612.88;5050732;28;20025;-70
2021/12/25 06:17:19;;;;;;;9.55;7.50;;;;;;;3.68;97.91;90617.31;5050917;28;20033;-70
2021/12/25 06:19:44;;;;;;;10.43;5.07;;;;;;;3.71;97.76;90616.75;5050989;28;20028;-70
2021/12/25 06:22:10;;;;;;;2.70;2.28;;;;;;;3.66;97.74;90614.19;5050356;28;20410;-71
2021/12/25 06:24:36;;;;;;;10.45;6.22;;;;;;;3.73;97.57;90622.53;5050217;28;20483;-70
2021/12/25 06:27:07;;;;;;;11.68;6.18;;;;;;;3.76;97.07;90618.56;5050626;28;20083;-70
2021/12/25 06:29:32;;;;;;;10.57;6.43;;;;;;;3.79;96.83;90620.66;5050636;28;20040;-70
2021/12/25 06:31:58;;;;;;;6.35;5.05;;;;;;;3.73;96.75;90613.84;5050738;28;20021;-70
2021/12/25 06:34:24;;;;;;;9.50;5.57;;;;;;;3.79;96.11;90620.66;5050615;28;20036;-70
2021/12/25 06:36:50;;;;;;;39.33;19.90;;;;;;;3.84;95.04;90626.66;5050474;28;20034;-70
2021/12/25 06:39:16;;;;;;;22.05;10.77;;;;;;;3.82;95.15;90623.53;5050598;28;20407;-70
2021/12/25 06:41:44;;;;;;;6.00;4.60;;;;;;;3.89;94.30;90633.72;5050398;28;20044;-70
2021/12/25 06:44:10;;;;;;;5.80;3.78;;;;;;;3.89;93.57;90626.63;5050549;28;20113;-70
2021/12/25 06:46:36;;;;;;;3.85;3.13;;;;;;;4.00;93.06;90624.69;5050143;28;20124;-70
2021/12/25 06:49:02;;;;;;;8.45;5.90;;;;;;;4.10;92.05;90629.88;5050574;28;20132;-70
2021/12/25 06:51:27;;;;;;;26.30;14.30;;;;;;;4.16;91.62;90622.72;5050404;28;20040;-70
2021/12/25 06:53:53;;;;;;;25.15;15.88;;;;;;;4.19;90.74;90640.59;5057724;28;20032;-70
2021/12/25 06:56:18;;;;;;;4.18;2.80;;;;;;;4.22;90.74;90634.75;5060079;28;20024;-70
2021/12/25 06:58:44;;;;;;;3.10;2.80;;;;;;;4.18;89.54;90634.53;5058573;28;20052;-70
2021/12/25 07:01:10;;;;;;;3.70;2.83;;;;;;;4.12;89.35;90635.66;5064871;28;20024;-70
2021/12/25 07:03:36;;;;;;;2.63;2.42;;;;;;;4.30;88.75;90641.28;5063527;28;20021;-70
2021/12/25 07:06:01;;;;;;;2.20;2.00;;;;;;;4.33;88.40;90644.16;5063328;28;20027;-70
2021/12/25 07:08:27;;;;;;;2.70;2.40;;;;;;;4.41;88.17;90638.28;5064771;28;20028;-70
2021/12/25 07:10:52;;;;;;;3.83;2.80;;;;;;;4.44;87.42;90644.84;5054123;28;20079;-70
2021/12/25 07:13:19;;;;;;;2.67;2.42;;;;;;;4.49;87.55;90652.69;5068945;28;20028;-70
2021/12/25 07:15:46;;;;;;;2.95;2.47;;;;;;;4.65;86.73;90648.06;5072929;28;20032;-68
2021/12/25 07:18:12;;;;;;;8.48;4.80;;;;;;;4.64;86.16;90646.50;5072650;28;20027;-68
2021/12/25 07:20:38;;;;;;;8.32;5.55;;;;;;;4.98;84.08;90656.94;5073935;28;20099;-68
2021/12/25 07:23:03;;;;;;;2.70;2.50;;;;;;;5.15;82.34;90669.66;5071928;28;20039;-68
2021/12/25 07:25:30;;;;;;;3.22;2.90;;;;;;;4.98;82.17;90656.94;5070400;28;20021;-69
2021/12/25 07:27:56;;;;;;;2.47;2.25;;;;;;;4.69;83.58;90657.75;5055635;28;20031;-69
2021/12/25 07:30:22;;;;;;;2.60;2.08;;;;;;;4.53;85.14;90660.81;5053891;28;20025;-68
2021/12/25 07:32:48;;;;;;;4.22;2.90;;;;;;;4.56;85.31;90657.63;5053677;28;20039;-69
2021/12/25 07:35:13;;;;;;;4.85;2.90;;;;;;;4.64;85.31;90649.91;5053388;28;20461;-68
2021/12/25 07:37:39;;;;;;;5.25;2.97;;;;;;;4.79;83.56;90641.06;5053636;28;20028;-67
2021/12/25 07:40:06;;;;;;;6.57;4.57;;;;;;;4.84;83.15;90643.63;5060239;28;20025;-68
2021/12/25 07:42:32;;;;;;;7.75;3.72;;;;;;;5.38;81.91;90631.94;5063412;28;20060;-69
2021/12/25 07:45:05;;;;;;;6.40;3.40;;;;;;;6.73;74.93;90631.94;5073432;28;20052;-68
2021/12/25 07:47:33;;;;;;;;;;;;;;;8.54;67.90;90635.56;5073611;28;20059;-68
2021/12/25 07:49:59;;;;;;;7.63;4.18;;;;;;;10.64;59.51;90625.88;5073364;28;19916;-68
2021/12/25 07:52:26;;;;;;;7.20;4.57;;;;;;;11.73;56.31;90625.34;5072970;28;20490;-68
2021/12/25 07:54:52;;;;;;;4.47;3.38;;;;;;;12.28;52.78;90631.25;5073180;28;20028;-68
2021/12/25 07:57:17;;;;;;;5.93;4.00;;;;;;;12.90;50.86;90637.63;5072514;28;20035;-68
2021/12/25 07:59:43;;;;;;;7.35;4.00;;;;;;;13.08;50.22;90647.03;5072791;28;20110;-68
2021/12/25 08:02:09;;;;;;;5.80;5.20;;;;;;;14.72;47.96;90643.38;5071506;28;20119;-68
2021/12/25 08:04:34;;;;;;;5.15;4.15;;;;;;;16.95;42.17;90631.09;5072952;28;20449;-68
2021/12/25 08:07:00;;;;;;;5.15;4.10;;;;;;;17.50;41.45;90645.19;5065076;28;20020;-68
2021/12/25 08:09:29;;;;;;;6.20;4.20;;;;;;;16.96;41.32;90646.88;5063276;28;20032;-68
2021/12/25 08:11:59;;;;;;;3.92;3.40;;;;;;;17.01;41.24;90643.13;5054059;28;20013;-68
2021/12/25 08:14:25;;;;;;;5.00;3.30;;;;;;;18.29;38.80;90653.44;5053016;28;20025;-72
2021/12/25 08:16:55;;;;;;;4.15;3.40;;;;;;;16.60;40.99;90641.88;5052874;28;20044;-72
2021/12/25 08:19:22;;;;;;;4.63;4.22;;;;;;;17.73;40.03;90648.72;5053110;28;20099;-68
2021/12/25 08:21:48;;;;;;;5.75;4.82;;;;;;;17.02;40.33;90653.50;5052740;28;20025;-73
2021/12/25 08:24:14;;;;;;;3.00;2.70;;;;;;;15.38;43.42;90650.88;5058067;28;20025;-70
2021/12/25 08:26:40;;;;;;;7.07;5.10;;;;;;;17.77;39.87;90638.00;5059378;28;20021;-72
2021/12/25 08:29:05;;;;;;;20.90;16.50;;;;;;;19.13;37.83;90663.09;5069781;28;20078;-69
2021/12/25 08:31:31;;;;;;;15.02;12.00;;;;;;;19.12;37.13;90646.16;5071439;28;20017;-69
2021/12/25 08:33:57;;;;;;;8.75;5.50;;;;;;;18.75;37.88;90653.34;5072761;28;20380;-70
2021/12/25 08:36:22;;;;;;;6.40;5.38;;;;;;;20.76;34.77;90655.78;5072058;28;20574;-68
2021/12/25 08:38:48;;;;;;;8.05;6.60;;;;;;;21.39;33.78;90661.91;5063741;28;20039;-70
2021/12/25 08:41:13;;;;;;;4.22;3.70;;;;;;;20.67;34.25;90657.25;5071627;28;20039;-69
2021/12/25 08:43:46;;;;;;;7.47;5.20;;;;;;;21.02;34.61;90659.41;5072644;28;20501;-69
2021/12/25 08:46:18;;;;;;;17.15;12.48;;;;;;;20.64;34.64;90654.16;5069351;28;20522;-69
2021/12/25 08:48:43;;;;;;;9.25;7.00;;;;;;;20.29;34.64;90656.56;5072123;28;20036;-70
2021/12/25 08:51:10;;;;;;;6.63;3.47;;;;;;;19.55;35.22;90662.06;5071935;28;20017;-70
2021/12/25 08:53:36;;;;;;;3.95;2.90;;;;;;;17.62;38.06;90667.31;5072065;28;20020;-70
2021/12/25 08:56:01;;;;;;;2.70;2.47;;;;;;;16.78;39.83;90637.69;5071973;28;20031;-70
2021/12/25 08:58:31;;;;;;;2.78;2.30;;;;;;;16.32;40.98;90647.41;5072169;28;20044;-68
2021/12/25 09:01:05;;;;;;;5.75;2.78;;;;;;;15.25;42.48;90653.63;5072257;28;20036;-68
2021/12/25 09:03:31;;;;;;;2.47;2.20;;;;;;;14.88;43.17;90649.56;5069319;28;20059;-69
2021/12/25 09:06:00;;;;;;;2.92;2.53;;;;;;;14.30;45.08;90644.44;5072247;28;20032;-69
2021/12/25 09:08:26;;;;;;;3.13;2.83;;;;;;;15.33;43.17;90648.44;5072218;28;20039;-68
2021/12/25 09:10:53;;;;;;;2.90;2.40;;;;;;;14.67;44.12;90641.69;5072132;28;20025;-69
2021/12/25 09:13:19;;;;;;;3.13;1.95;;;;;;;14.59;44.83;90646.06;5072181;28;20032;-68
2021/12/25 09:15:44;;;;;;;2.47;2.22;;;;;;;15.95;42.27;90646.94;5071910;28;20024;-68
2021/12/25 09:18:10;;;;;;;2.30;2.13;;;;;;;15.37;42.65;90646.63;5072064;28;20025;-68
2021/12/25 09:20:36;;;;;;;5.95;2.67;;;;;;;13.28;46.63;90648.13;5071929;28;20025;-68
2021/12/25 09:23:03;;;;;;;5.78;4.38;;;;;;;14.86;44.38;90628.47;5070568;28;20510;-67
2021/12/25 09:25:28;;;;;;;4.15;3.35;;;;;;;15.78;42.59;90630.09;5072193;28;20036;-67
2021/12/25 09:27:54;;;;;;;5.43;4.47;;;;;;;16.45;41.96;90622.78;5071865;28;20489;-67
2021/12/25 09:30:21;;;;;;;5.07;3.58;;;;;;;18.25;39.29;90626.47;5071968;28;20406;-68
2021/12/25 09:32:47;;;;;;;3.38;3.08;;;;;;;17.55;39.17;90618.78;5071911;28;20032;-67
2021/12/25 09:35:12;;;;;;;3.08;2.55;;;;;;;16.28;40.81;90620.50;5071833;28;20547;-67
2021/12/25 09:37:38;;;;;;;6.65;3.00;;;;;;;15.04;43.57;90622.81;5071743;28;20029;-67
2021/12/25 09:40:07;;;;;;;3.33;2.60;;;;;;;15.98;42.45;90622.09;5071430;28;20079;-68
2021/12/25 09:42:33;;;;;;;6.07;3.30;;;;;;;15.01;43.59;90618.91;5071405;28;20028;-67
2021/12/25 09:44:59;;;;;;;3.67;3.10;;;;;;;14.71;44.53;90613.13;5071544;28;20180;-67
2021/12/25 09:47:25;;;;;;;8.15;6.10;;;;;;;14.43;45.21;90617.66;5071440;28;20498;-67
2021/12/25 09:49:51;;;;;;;3.80;2.60;;;;;;;13.58;45.70;90603.28;5071466;28;20103;-67
2021/12/25 09:52:17;;;;;;;2.70;2.50;;;;;;;13.16;47.65;90614.13;5071151;28;20104;-67
2021/12/25 09:54:43;;;;;;;3.35;2.80;;;;;;;11.08;51.17;90601.50;5071337;28;20032;-67
2021/12/25 09:57:09;;;;;;;4.85;4.35;;;;;;;10.61;53.60;90605.25;5071132;28;20047;-67
2021/12/25 09:59:35;;;;;;;2.08;1.88;;;;;;;9.95;55.35;90596.66;5071401;28;20490;-67
2021/12/25 10:02:01;;;;;;;2.65;1.92;;;;;;;8.59;59.61;90606.25;5071123;28;20032;-67
2021/12/25 10:04:44;;;;;;;1.90;1.70;;;;;;;10.28;55.37;90597.78;5071076;28;20102;-67
2021/12/25 10:07:21;;;;;;;2.55;1.98;;;;;;;10.63;54.06;90592.41;5071274;28;20537;-67
2021/12/25 10:09:56;;;;;;;2.80;2.30;;;;;;;9.14;57.71;90597.91;5071225;28;20033;-67
2021/12/25 10:12:36;;;;;;;5.47;2.40;;;;;;;8.30;60.81;90596.06;5071090;28;20027;-67
2021/12/25 10:15:04;;;;;;;41.90;24.70;;;;;;;8.37;61.58;90583.22;5071040;28;20387;-67
2021/12/25 10:17:31;;;;;;;5.75;2.90;;;;;;;8.05;62.22;90586.09;5070178;28;20115;-67
2021/12/25 10:20:11;;;;;;;3.10;2.10;;;;;;;8.27;61.55;90585.28;5071090;28;20501;-68
2021/12/25 10:22:53;;;;;;;2.20;2.00;;;;;;;7.99;62.18;90577.47;5070950;28;20054;-68
2021/12/25 10:25:19;;;;;;;3.33;2.13;;;;;;;8.10;62.03;90576.16;5071126;28;20034;-68
2021/12/25 10:27:54;;;;;;;2.88;2.20;;;;;;;8.32;62.42;90579.88;5071107;28;20029;-68
2021/12/25 10:30:21;;;;;;;3.53;2.35;;;;;;;9.45;59.39;90567.84;5070759;28;20039;-68
2021/12/25 10:32:48;;;;;;;3.10;2.80;;;;;;;9.70;57.68;90567.09;5070851;28;20028;-68
2021/12/25 10:35:25;;;;;;;5.30;3.28;;;;;;;10.06;56.92;90572.09;5070542;28;20391;-68
2021/12/25 10:37:52;;;;;;;3.53;2.72;;;;;;;10.10;56.75;90572.28;5071043;28;20025;-68
2021/12/25 10:40:26;;;;;;;4.07;2.65;;;;;;;10.26;56.34;90560.09;5069439;28;20059;-68
2021/12/25 10:42:57;;;;;;;4.30;2.40;;;;;;;10.08;56.57;90567.25;5070421;28;20028;-68
2021/12/25 10:45:26;;;;;;;4.57;3.13;;;;;;;10.04;56.80;90554.91;5070883;28;20479;-68
2021/12/25 10:48:03;;;;;;;3.17;2.85;;;;;;;10.08;56.81;90555.84;5070254;28;20415;-69
2021/12/25 10:50:35;;;;;;;6.68;2.78;;;;;;;9.49;58.01;90552.88;5065456;28;20407;-69
2021/12/25 10:53:01;;;;;;;4.68;3.70;;;;;;;8.93;59.55;90557.09;5070679;28;20086;-68
2021/12/25 10:55:27;;;;;;;4.10;2.75;;;;;;;8.75;59.79;90548.31;5051743;28;20482;-68
2021/12/25 10:57:58;;;;;;;3.60;2.90;;;;;;;8.61;60.78;90545.75;5052750;28;20053;-69
2021/12/25 11:00:24;;;;;;;2.78;2.30;;;;;;;8.56;60.99;90551.19;5050412;28;20037;-68
2021/12/25 11:03:05;;;;;;;2.85;2.45;;;;;;;8.57;61.40;90549.31;5058438;28;20046;-68
2021/12/25 11:05:33;;;;;;;3.13;2.78;;;;;;;10.00;58.03;90546.00;5068713;28;20036;-68
2021/12/25 11:08:16;;;;;;;5.40;3.15;;;;;;;9.98;57.13;90534.91;5070139;28;20102;-68
2021/12/25 11:10:50;;;;;;;4.22;3.03;;;;;;;10.87;55.55;90536.75;5070185;28;20084;-68
2021/12/25 11:13:23;;;;;;;3.70;3.30;;;;;;;12.44;51.37;90539.97;5070223;28;20115;-68
2021/12/25 11:15:53;;;;;;;3.88;3.40;;;;;;;12.24;51.91;90537.00;5070400;28;20044;-68
2021/12/25 11:18:19;;;;;;;4.65;3.25;;;;;;;13.69;48.66;90526.09;5068212;28;20033;-69
2021/12/25 11:20:46;;;;;;;5.93;3.10;;;;;;;13.68;48.13;90527.97;5069564;28;20115;-69
2021/12/25 11:23:14;;;;;;;3.58;3.22;;;;;;;15.55;45.58;90525.31;5069730;28;20052;-68
2021/12/25 11:25:42;;;;;;;7.07;3.10;;;;;;;15.51;44.34;90516.41;5070629;28;20045;-68
2021/12/25 11:28:12;;;;;;;4.97;3.83;;;;;;;14.91;45.34;90518.41;5070314;28;20032;-68
2021/12/25 11:30:45;;;;;;;3.00;2.70;;;;;;;14.20;46.28;90516.50;5068215;28;20075;-68
2021/12/25 11:33:11;;;;;;;3.20;2.97;;;;;;;13.22;47.96;90526.56;5070025;28;20032;-69
2021/12/25 11:35:38;;;;;;;3.85;2.90;;;;;;;12.56;49.78;90524.00;5069845;28;20037;-71
2021/12/25 11:38:06;;;;;;;3.85;3.30;;;;;;;12.19;50.95;90518.56;5063774;28;20043;-71
2021/12/25 11:40:38;;;;;;;5.57;3.80;;;;;;;12.81;50.02;90506.94;5066968;28;20040;-70
2021/12/25 11:43:04;;;;;;;3.17;2.83;;;;;;;13.29;48.61;90518.00;5069584;28;20046;-69
2021/12/25 11:45:40;;;;;;;3.10;2.80;;;;;;;12.83;49.71;90519.94;5064949;28;20024;-69
2021/12/25 11:48:20;;;;;;;2.72;2.53;;;;;;;13.26;48.96;90495.41;5091600;28;20063;-70
2021/12/25 11:50:49;;;;;;;5.28;2.67;;;;;;;13.56;48.19;90509.28;5072966;28;20044;-68
2021/12/25 11:53:27;;;;;;;4.75;2.40;;;;;;;12.69;49.71;90509.56;5073404;28;20056;-69
2021/12/25 11:58:49;;;;;;;4.05;2.78;;;;;;;12.82;50.22;90500.47;5071194;28;20051;-73
2021/12/25 12:01:31;;;;;;;3.22;2.70;;;;;;;12.01;51.90;90501.16;5062831;28;20463;-69
2021/12/25 12:04:00;;;;;;;3.15;2.83;;;;;;;11.47;53.10;90505.59;5052980;28;20060;-70
2021/12/25 12:06:51;;;;;;;4.40;2.85;;;;;;;11.96;52.23;90504.00;5051428;28;20075;-70
2021/12/25 12:09:20;;;;;;;7.68;5.70;;;;;;;11.92;52.18;90506.53;5046758;28;20068;-71
2021/12/25 12:11:51;;;;;;;2.67;2.47;;;;;;;10.72;54.17;90500.03;5052924;28;20063;-69
2021/12/25 12:14:21;;;;;;;3.97;3.35;;;;;;;10.31;55.47;90485.47;5053124;28;20048;-70
2021/12/25 12:16:53;;;;;;;3.75;3.13;;;;;;;11.89;52.86;90496.53;5052895;28;20414;-70
2021/12/25 12:19:31;;;;;;;5.30;4.80;;;;;;;13.67;49.09;90505.03;5052682;28;20455;-71
2021/12/25 12:27:38;;;;;;;4.80;3.47;;;;;;;15.36;45.17;90505.72;5072970;28;20041;-68
2021/12/25 12:30:09;;;;;;;6.45;5.43;;;;;;;14.67;45.71;90492.56;5071489;28;20135;-69
2021/12/25 12:32:46;;;;;;;5.85;4.82;;;;;;;14.12;46.90;90495.22;5072601;28;20078;-69
2021/12/25 12:35:29;;;;;;;4.38;3.63;;;;;;;15.04;45.32;90505.72;5072571;28;20115;-67
2021/12/25 12:38:26;;;;;;;12.30;7.70;;;;;;;14.74;45.65;90515.28;5069576;28;20475;-67
2021/12/25 12:41:31;;;;;;;5.22;3.80;;;;;;;14.98;45.44;90517.78;5072187;28;20498;-67
2021/12/25 12:44:08;;;;;;;28.98;21.17;;;;;;;17.21;42.22;90518.34;5069306;28;20028;-70
2021/12/25 12:46:52;;;;;;;10.43;7.88;;;;;;;18.15;40.36;90522.09;5066045;28;20083;-68
2021/12/25 12:49:22;;;;;;;14.07;10.52;;;;;;;17.52;40.73;90524.59;5072064;28;20123;-69
2021/12/25 12:52:09;;;;;;;6.50;5.13;;;;;;;18.49;39.19;90522.16;5068160;28;20410;-68
2021/12/25 12:54:54;;;;;;;4.35;3.88;;;;;;;16.67;41.74;90531.94;5048674;28;20119;-68
2021/12/25 12:57:33;;;;;;;6.30;5.07;;;;;;;16.03;43.49;90528.69;5071457;28;20040;-69
2021/12/25 13:00:04;;;;;;;11.50;8.02;;;;;;;15.97;43.49;90532.78;5072311;28;20108;-68
2021/12/25 13:02:37;;;;;;;3.00;2.70;;;;;;;14.70;45.32;90519.78;5071728;28;20487;-67
2021/12/25 13:05:03;;;;;;;27.30;20.35;;;;;;;15.00;44.74;90528.97;5071703;28;20041;-68